createdAt,value
2023-01-09T00:01:33.953Z,9.57
2023-01-09T00:04:02.832Z,9.98
2023-01-09T00:06:31.485Z,10.18
2023-01-09T00:08:59.947Z,10.88
2023-01-09T00:11:28.327Z,10.40
2023-01-09T00:13:58.074Z,11.18
2023-01-09T00:16:26.830Z,10.38
2023-01-09T00:18:55.297Z,10.82
2023-01-09T00:21:24.059Z,10.73
2023-01-09T00:23:55.058Z,10.73
2023-01-09T00:26:23.886Z,11.40
2023-01-09T00:28:54.164Z,11.18
2023-01-09T00:31:23.952Z,11.20
2023-01-09T00:33:56.686Z,10.98
2023-01-09T00:36:25.055Z,11.20
2023-01-09T00:38:53.755Z,11.35
2023-01-09T00:41:26.010Z,10.50
2023-01-09T00:43:58.321Z,11.00
2023-01-09T00:46:32.579Z,11.20
2023-01-09T00:49:03.303Z,10.63
2023-01-09T00:51:31.767Z,11.20
2023-01-09T00:54:00.653Z,10.73
2023-01-09T00:56:29.030Z,11.82
2023-01-09T00:58:57.607Z,12.00
2023-01-09T01:01:26.118Z,11.98
2023-01-09T01:03:56.689Z,12.32
2023-01-09T01:06:42.772Z,11.50
2023-01-09T01:09:11.134Z,11.40
2023-01-09T01:11:39.498Z,11.38
2023-01-09T01:14:07.991Z,10.93
2023-01-09T01:16:36.464Z,10.82
2023-01-09T01:19:06.209Z,11.68
2023-01-09T01:21:34.561Z,10.95
2023-01-09T01:24:02.931Z,12.05
2023-01-09T01:26:31.319Z,12.40
2023-01-09T01:29:00.127Z,11.65
2023-01-09T01:31:28.488Z,12.52
2023-01-09T01:33:56.818Z,12.70
2023-01-09T01:36:26.495Z,13.32
2023-01-09T01:38:54.918Z,15.50
2023-01-09T01:41:30.254Z,14.38
2023-01-09T01:44:01.644Z,13.75
2023-01-09T01:46:30.524Z,12.82
2023-01-09T01:49:02.223Z,13.73
2023-01-09T01:51:35.927Z,12.60
2023-01-09T01:54:09.275Z,13.05
2023-01-09T01:56:41.544Z,12.85
2023-01-09T01:59:14.955Z,13.30
2023-01-09T02:01:50.200Z,12.73
2023-01-09T02:04:18.949Z,12.93
2023-01-09T02:06:51.476Z,13.90
2023-01-09T02:09:22.848Z,13.30
2023-01-09T02:11:53.362Z,14.30
2023-01-09T02:14:25.493Z,15.10
2023-01-09T02:17:02.570Z,14.90
2023-01-09T02:19:58.640Z,14.52
2023-01-09T02:22:36.956Z,14.02
2023-01-09T02:25:27.380Z,13.95
2023-01-09T02:28:28.789Z,13.52
2023-01-09T02:31:09.029Z,12.80
2023-01-09T02:33:51.263Z,12.88
2023-01-09T02:36:29.514Z,12.95
2023-01-09T02:39:17.154Z,13.82
2023-01-09T02:41:51.980Z,13.13
2023-01-09T02:44:23.531Z,13.60
2023-01-09T02:47:03.726Z,13.18
2023-01-09T02:49:33.751Z,13.40
2023-01-09T02:52:14.752Z,14.75
2023-01-09T02:54:55.547Z,13.13
2023-01-09T02:57:37.902Z,13.02
2023-01-09T03:00:13.623Z,14.20
2023-01-09T03:02:50.879Z,14.18
2023-01-09T03:05:26.139Z,13.57
2023-01-09T03:08:01.733Z,14.45
2023-01-09T03:10:42.514Z,13.48
2023-01-09T03:13:15.185Z,14.63
2023-01-09T03:15:49.562Z,13.93
2023-01-09T03:20:51.059Z,14.32
2023-01-09T03:23:19.533Z,12.77
2023-01-09T03:25:48.076Z,13.32
2023-01-09T03:28:27.178Z,13.02
2023-01-09T03:30:55.963Z,13.98
2023-01-09T03:33:25.689Z,13.63
2023-01-09T03:35:54.000Z,14.05
2023-01-09T03:38:22.405Z,14.20
2023-01-09T03:40:51.340Z,13.43
2023-01-09T03:43:19.837Z,13.93
2023-01-09T03:45:48.244Z,14.30
2023-01-09T03:48:16.693Z,14.57
2023-01-09T03:50:47.383Z,13.68
2023-01-09T03:53:16.232Z,14.10
2023-01-09T03:55:46.435Z,13.40
2023-01-09T03:58:15.299Z,13.50
2023-01-09T04:00:45.927Z,13.40
2023-01-09T04:03:14.497Z,13.15
2023-01-09T04:05:43.173Z,13.02
2023-01-09T04:08:13.295Z,13.50
2023-01-09T04:10:42.104Z,13.05
2023-01-09T04:13:10.495Z,13.18
2023-01-09T04:15:38.834Z,13.18
2023-01-09T04:18:07.297Z,13.13
2023-01-09T04:20:35.970Z,13.77
2023-01-09T04:23:04.342Z,12.50
2023-01-09T04:25:34.122Z,14.25
2023-01-09T04:28:02.478Z,13.88
2023-01-09T04:30:30.898Z,13.80
2023-01-09T04:32:59.246Z,13.65
2023-01-09T04:35:27.623Z,13.27
2023-01-09T04:37:55.975Z,13.98
2023-01-09T04:40:24.336Z,14.23
2023-01-09T04:42:54.042Z,14.32
2023-01-09T04:45:22.498Z,13.75
2023-01-09T04:47:50.851Z,14.80
2023-01-09T04:50:19.550Z,14.50
2023-01-09T04:52:47.915Z,14.75
2023-01-09T04:55:16.302Z,12.85
2023-01-09T04:57:44.737Z,14.45
2023-01-09T05:00:14.984Z,13.70
2023-01-09T05:02:43.561Z,13.45
2023-01-09T05:05:12.367Z,14.20
2023-01-09T05:07:41.085Z,13.27
2023-01-09T05:10:11.041Z,14.23
2023-01-09T05:12:39.810Z,13.27
2023-01-09T05:15:09.869Z,13.20
2023-01-09T05:17:39.585Z,13.38
2023-01-09T05:20:08.793Z,13.18
2023-01-09T05:22:37.128Z,13.50
2023-01-09T05:25:06.064Z,13.63
2023-01-09T05:27:34.426Z,12.90
2023-01-09T05:30:02.776Z,13.25
2023-01-09T05:32:31.163Z,15.40
2023-01-09T05:35:00.883Z,13.80
2023-01-09T05:37:29.225Z,13.85
2023-01-09T05:39:57.634Z,13.85
2023-01-09T05:42:26.033Z,14.73
2023-01-09T05:44:54.458Z,16.30
2023-01-09T05:47:22.804Z,17.88
2023-01-09T05:49:51.197Z,14.48
2023-01-09T05:52:20.899Z,14.38
2023-01-09T05:54:49.274Z,13.68
2023-01-09T05:57:18.199Z,14.25
2023-01-09T05:59:46.593Z,14.73
2023-01-09T06:02:15.206Z,13.65
2023-01-09T06:04:44.438Z,14.40
2023-01-09T06:07:17.284Z,14.68
2023-01-09T06:09:49.298Z,15.10
2023-01-09T06:12:17.657Z,14.48
2023-01-09T06:14:46.111Z,14.73
2023-01-09T06:17:14.463Z,14.40
2023-01-09T06:19:42.837Z,14.80
2023-01-09T06:22:11.226Z,15.85
2023-01-09T06:24:39.561Z,14.57
2023-01-09T06:27:09.303Z,14.60
2023-01-09T06:29:37.656Z,14.00
2023-01-09T06:32:06.848Z,14.20
2023-01-09T06:34:35.376Z,14.82
2023-01-09T06:37:03.720Z,15.95
2023-01-09T06:39:32.087Z,15.57
2023-01-09T06:42:00.431Z,14.65
2023-01-09T06:44:30.173Z,15.57
2023-01-09T06:46:58.528Z,14.75
2023-01-09T06:49:26.928Z,16.52
2023-01-09T06:51:55.320Z,18.42
2023-01-09T06:54:23.859Z,18.17
2023-01-09T06:56:52.305Z,16.35
2023-01-09T06:59:20.867Z,16.63
2023-01-09T07:01:50.705Z,15.98
2023-01-09T07:04:21.928Z,14.90
2023-01-09T07:06:50.992Z,16.48
2023-01-09T07:09:19.354Z,15.30
2023-01-09T07:11:47.869Z,15.32
2023-01-09T07:14:16.321Z,15.55
2023-01-09T07:16:44.657Z,13.73
2023-01-09T07:19:14.376Z,14.65
2023-01-09T07:21:42.789Z,14.85
2023-01-09T07:24:11.107Z,15.13
2023-01-09T07:26:39.581Z,15.80
2023-01-09T07:29:07.946Z,16.77
2023-01-09T07:31:36.392Z,14.55
2023-01-09T07:34:04.765Z,14.40
2023-01-09T07:36:34.497Z,15.23
2023-01-09T07:39:02.866Z,15.35
2023-01-09T07:41:31.210Z,17.85
2023-01-09T07:43:59.560Z,19.15
2023-01-09T07:46:29.138Z,17.27
2023-01-09T07:48:57.557Z,16.02
2023-01-09T07:51:26.154Z,16.15
2023-01-09T07:53:55.873Z,15.85
2023-01-09T07:56:24.288Z,14.80
2023-01-09T07:58:52.709Z,15.48
2023-01-09T08:01:21.167Z,15.60
2023-01-09T08:03:49.595Z,16.63
2023-01-09T08:06:17.924Z,16.55
2023-01-09T08:08:46.385Z,17.25
2023-01-09T08:11:16.108Z,15.48
2023-01-09T08:13:44.487Z,16.35
2023-01-09T08:16:13.024Z,14.85
2023-01-09T08:18:41.405Z,17.10
2023-01-09T08:21:13.723Z,15.10
2023-01-09T08:23:42.072Z,16.42
2023-01-09T08:26:10.505Z,14.60
2023-01-09T08:28:40.249Z,15.27
2023-01-09T08:31:08.658Z,15.18
2023-01-09T08:33:40.376Z,15.57
2023-01-09T08:36:09.564Z,14.82
2023-01-09T08:38:37.984Z,16.50
2023-01-09T08:41:31.475Z,18.60
2023-01-09T08:44:18.543Z,15.07
2023-01-09T08:47:04.275Z,16.48
2023-01-09T08:49:32.700Z,16.17
2023-01-09T08:52:01.097Z,14.43
2023-01-09T08:54:31.226Z,14.43
2023-01-09T08:56:59.912Z,14.60
2023-01-09T08:59:29.651Z,15.02
2023-01-09T09:01:58.397Z,14.57
2023-01-09T09:04:27.104Z,14.32
2023-01-09T09:06:55.633Z,14.35
2023-01-09T09:09:25.203Z,14.10
2023-01-09T09:11:53.942Z,14.65
2023-01-09T09:14:40.086Z,14.10
2023-01-09T09:17:09.914Z,13.55
2023-01-09T09:19:39.516Z,15.68
2023-01-09T09:22:07.977Z,13.73
2023-01-09T09:24:36.432Z,14.20
2023-01-09T09:27:05.134Z,13.18
2023-01-09T09:29:33.467Z,14.75
2023-01-09T09:32:02.015Z,15.15
2023-01-09T09:34:31.847Z,14.98
2023-01-09T09:37:00.355Z,14.65
2023-01-09T09:39:28.774Z,14.70
2023-01-09T09:42:38.750Z,14.00
2023-01-09T09:45:19.293Z,15.20
2023-01-09T09:47:57.814Z,14.57
2023-01-09T09:50:59.299Z,13.85
2023-01-09T09:53:32.078Z,13.63
2023-01-09T09:56:01.736Z,14.15
2023-01-09T09:58:35.655Z,13.60
2023-01-09T10:01:05.918Z,13.30
2023-01-09T10:03:38.456Z,12.32
2023-01-09T10:06:14.151Z,12.93
2023-01-09T10:08:49.439Z,13.00
2023-01-09T10:11:23.966Z,13.35
2023-01-09T10:14:16.028Z,14.48
2023-01-09T10:17:14.081Z,12.75
2023-01-09T10:19:54.701Z,12.27
2023-01-09T10:22:33.277Z,11.98
2023-01-09T10:25:13.941Z,11.82
2023-01-09T10:27:59.278Z,10.63
2023-01-09T10:30:36.994Z,11.95
2023-01-09T10:33:19.175Z,11.25
2023-01-09T10:35:59.147Z,10.25
2023-01-09T10:38:34.754Z,10.50
2023-01-09T10:41:09.761Z,9.80
2023-01-09T10:43:45.222Z,10.00
2023-01-09T10:46:19.731Z,9.23
2023-01-09T10:48:53.367Z,9.18
2023-01-09T10:51:25.203Z,9.52
2023-01-09T10:53:57.385Z,9.68
2023-01-09T10:56:28.304Z,9.45
2023-01-09T10:58:57.664Z,9.60
2023-01-09T11:01:28.093Z,9.40
2023-01-09T11:03:59.088Z,9.15
2023-01-09T11:06:37.516Z,8.82
2023-01-09T11:09:07.608Z,8.43
2023-01-09T11:11:37.852Z,8.43
2023-01-09T11:14:13.956Z,9.25
2023-01-09T11:16:53.804Z,12.10
2023-01-09T11:19:23.446Z,11.85
2023-01-09T11:21:52.385Z,10.95
2023-01-09T11:24:31.447Z,8.48
2023-01-09T11:27:23.476Z,7.85
2023-01-09T11:30:27.897Z,8.02
2023-01-09T11:32:57.765Z,8.23
2023-01-09T11:35:33.076Z,8.15
2023-01-09T11:38:16.123Z,7.47
2023-01-09T11:40:51.201Z,6.63
2023-01-09T11:43:25.496Z,6.82
2023-01-09T11:48:33.845Z,7.03
2023-01-09T11:51:04.231Z,6.20
2023-01-09T11:53:49.112Z,7.95
2023-01-09T11:56:19.357Z,6.07
2023-01-09T11:58:47.780Z,7.30
2023-01-09T12:01:39.025Z,8.20
2023-01-09T12:04:20.833Z,5.25
2023-01-09T12:07:20.461Z,5.78
2023-01-09T12:09:57.451Z,6.25
2023-01-09T12:12:32.939Z,5.95
2023-01-09T12:15:10.205Z,6.75
2023-01-09T12:18:03.152Z,7.80
2023-01-09T12:20:48.466Z,7.28
2023-01-09T12:23:26.593Z,6.13
2023-01-09T12:26:08.778Z,5.28
2023-01-09T12:29:00.214Z,5.43
2023-01-09T12:31:43.015Z,5.78
2023-01-09T12:34:27.922Z,4.15
2023-01-09T12:37:11.790Z,4.53
2023-01-09T12:39:49.980Z,3.65
2023-01-09T12:42:32.455Z,4.60
2023-01-09T12:45:08.351Z,7.00
2023-01-09T12:47:46.416Z,5.63
2023-01-09T12:50:29.524Z,6.88
2023-01-09T12:53:07.543Z,4.55
2023-01-09T12:55:39.885Z,4.45
2023-01-09T12:58:15.279Z,4.10
2023-01-09T13:00:50.282Z,4.03
2023-01-09T13:03:25.999Z,3.92
2023-01-09T13:05:57.416Z,3.83
2023-01-09T13:08:32.177Z,3.83
2023-01-09T13:11:19.545Z,3.47
2023-01-09T13:13:52.611Z,4.82
2023-01-09T13:16:27.750Z,4.57
2023-01-09T13:19:02.452Z,4.00
2023-01-09T13:21:30.888Z,4.35
2023-01-09T13:24:07.580Z,4.20
2023-01-09T13:26:38.944Z,4.22
2023-01-09T13:29:14.077Z,5.63
2023-01-09T13:32:23.891Z,5.15
2023-01-09T13:34:54.993Z,4.15
2023-01-09T13:37:26.961Z,3.22
2023-01-09T13:40:00.746Z,3.78
2023-01-09T13:42:44.224Z,3.20
2023-01-09T13:45:24.702Z,3.25
2023-01-09T13:48:26.202Z,3.90
2023-01-09T13:50:55.934Z,3.45
2023-01-09T13:53:47.907Z,3.85
2023-01-09T13:56:16.442Z,4.25
2023-01-09T13:59:09.240Z,3.88
2023-01-09T14:01:43.330Z,4.15
2023-01-09T14:04:45.623Z,6.07
2023-01-09T14:07:27.741Z,5.18
2023-01-09T14:10:00.625Z,6.47
2023-01-09T14:12:31.890Z,7.07
2023-01-09T14:15:03.140Z,4.18
2023-01-09T14:17:35.133Z,3.53
2023-01-09T14:20:08.228Z,3.80
2023-01-09T14:22:46.189Z,3.85
2023-01-09T14:25:29.311Z,6.50
2023-01-09T14:28:19.984Z,3.33
2023-01-09T14:31:31.224Z,6.28
2023-01-09T14:34:34.139Z,3.15
2023-01-09T14:37:04.409Z,3.63
2023-01-09T14:39:33.824Z,3.50
2023-01-09T14:42:08.241Z,3.80
2023-01-09T14:47:22.657Z,11.48
2023-01-09T14:49:56.573Z,10.90
2023-01-09T14:52:31.518Z,10.90
2023-01-09T14:55:03.378Z,10.82
2023-01-09T14:57:34.069Z,7.18
2023-01-09T15:00:04.665Z,6.20
2023-01-09T15:02:37.205Z,5.53
2023-01-09T15:05:09.515Z,7.95
2023-01-09T15:07:45.437Z,7.38
2023-01-09T15:10:19.902Z,9.38
2023-01-09T15:12:50.916Z,5.80
2023-01-09T15:15:21.674Z,5.38
2023-01-09T15:17:56.264Z,4.38
2023-01-09T15:20:27.224Z,3.83
2023-01-09T15:22:57.910Z,4.47
2023-01-09T15:25:38.117Z,5.10
2023-01-09T15:28:30.715Z,4.28
2023-01-09T15:31:04.357Z,6.70
2023-01-09T15:33:33.814Z,6.57
2023-01-09T15:36:16.038Z,6.28
2023-01-09T15:38:46.865Z,6.78
2023-01-09T15:41:35.394Z,6.50
2023-01-09T15:44:04.979Z,6.38
2023-01-09T15:46:33.757Z,6.82
2023-01-09T15:49:02.439Z,7.30
2023-01-09T15:51:32.826Z,7.75
2023-01-09T15:54:04.120Z,9.77
2023-01-09T15:56:33.449Z,8.50
2023-01-09T15:59:02.134Z,4.60
2023-01-09T16:01:31.754Z,4.53
2023-01-09T16:04:07.020Z,4.55
2023-01-09T16:06:37.260Z,5.70
2023-01-09T16:09:17.151Z,6.05
2023-01-09T16:11:52.021Z,4.38
2023-01-09T16:14:23.135Z,5.13
2023-01-09T16:16:52.890Z,4.00
2023-01-09T16:19:32.429Z,4.38
2023-01-09T16:22:03.037Z,5.38
2023-01-09T16:24:41.816Z,5.35
2023-01-09T16:27:30.475Z,5.50
2023-01-09T16:30:00.144Z,5.40
2023-01-09T16:32:31.167Z,4.80
2023-01-09T16:35:00.878Z,5.65
2023-01-09T16:37:29.973Z,3.95
2023-01-09T16:40:25.955Z,4.30
2023-01-09T16:43:03.412Z,4.72
2023-01-09T16:45:34.600Z,4.18
2023-01-09T16:48:04.606Z,3.88
2023-01-09T16:50:32.987Z,3.65
2023-01-09T16:53:12.139Z,4.10
2023-01-09T16:55:41.983Z,3.80
2023-01-09T16:58:17.008Z,3.20
2023-01-09T17:00:47.932Z,3.63
2023-01-09T17:03:17.200Z,3.40
2023-01-09T17:05:45.756Z,3.50
2023-01-09T17:08:22.257Z,5.20
2023-01-09T17:10:53.755Z,6.05
2023-01-09T17:13:22.637Z,4.10
2023-01-09T17:15:51.577Z,4.57
2023-01-09T17:18:21.802Z,3.90
2023-01-09T17:20:51.851Z,4.07
2023-01-09T17:23:22.428Z,4.40
2023-01-09T17:26:14.142Z,7.25
2023-01-09T17:28:45.985Z,3.70
2023-01-09T17:31:14.565Z,8.88
2023-01-09T17:33:43.027Z,4.97
2023-01-09T17:36:28.535Z,3.97
2023-01-09T17:38:56.881Z,3.38
2023-01-09T17:41:29.110Z,2.80
2023-01-09T17:43:58.481Z,4.60
2023-01-09T17:46:29.980Z,3.47
2023-01-09T17:48:59.121Z,3.38
2023-01-09T17:51:29.314Z,2.92
2023-01-09T17:53:58.273Z,4.55
2023-01-09T17:56:32.070Z,5.65
2023-01-09T17:59:00.483Z,4.85
2023-01-09T18:01:28.940Z,3.45
2023-01-09T18:03:57.569Z,3.80
2023-01-09T18:06:26.019Z,3.45
2023-01-09T18:08:55.716Z,4.68
2023-01-09T18:11:25.737Z,3.40
2023-01-09T18:13:56.225Z,3.88
2023-01-09T18:16:26.586Z,4.47
2023-01-09T18:18:57.481Z,3.45
2023-01-09T18:21:27.938Z,3.58
2023-01-09T18:23:57.740Z,3.40
2023-01-09T18:26:26.396Z,4.50
2023-01-09T18:28:59.008Z,5.13
2023-01-09T18:31:29.009Z,11.57
2023-01-09T18:34:02.136Z,3.40
2023-01-09T18:36:30.841Z,3.63
2023-01-09T18:39:01.004Z,3.60
2023-01-09T18:41:30.650Z,4.78
2023-01-09T18:44:01.758Z,3.20
2023-01-09T18:46:32.318Z,11.88
2023-01-09T18:49:02.302Z,3.85
2023-01-09T18:51:31.210Z,4.07
2023-01-09T18:53:59.675Z,3.67
2023-01-09T18:56:28.078Z,4.55
2023-01-09T18:58:57.916Z,4.93
2023-01-09T19:01:29.344Z,3.50
2023-01-09T19:03:59.293Z,3.72
2023-01-09T19:06:28.748Z,4.50
2023-01-09T19:08:57.175Z,3.80
2023-01-09T19:11:25.759Z,3.60
2023-01-09T19:13:54.327Z,3.22
2023-01-09T19:16:22.905Z,3.20
2023-01-09T19:18:52.678Z,3.50
2023-01-09T19:21:23.669Z,3.70
2023-01-09T19:23:52.077Z,3.17
2023-01-09T19:26:23.781Z,3.70
2023-01-09T19:28:55.075Z,4.95
2023-01-09T19:31:24.695Z,3.78
2023-01-09T19:33:54.962Z,4.22
2023-01-09T19:36:23.451Z,3.95
2023-01-09T19:38:57.302Z,4.78
2023-01-09T19:41:25.786Z,3.67
2023-01-09T19:43:54.217Z,4.10
2023-01-09T19:46:25.026Z,3.40
2023-01-09T19:48:58.336Z,3.78
2023-01-09T19:51:26.834Z,3.65
2023-01-09T19:56:29.925Z,3.80
2023-01-09T19:58:59.975Z,3.67
2023-01-09T20:01:30.795Z,4.30
2023-01-09T20:04:03.302Z,3.10
2023-01-09T20:06:32.482Z,4.07
2023-01-09T20:09:03.284Z,4.13
2023-01-09T20:11:33.836Z,4.50
2023-01-09T20:14:03.887Z,3.60
2023-01-09T20:16:34.416Z,4.97
2023-01-09T20:19:07.361Z,3.28
2023-01-09T20:21:36.770Z,2.08
2023-01-09T20:24:07.264Z,6.07
2023-01-09T20:26:37.241Z,3.00
2023-01-09T20:29:05.597Z,3.03
2023-01-09T20:31:34.462Z,4.05
2023-01-09T20:34:04.569Z,10.27
2023-01-09T20:36:34.861Z,5.68
2023-01-09T20:39:05.729Z,7.15
2023-01-09T20:41:34.832Z,6.80
2023-01-09T20:44:06.895Z,5.35
2023-01-09T20:46:37.990Z,3.80
2023-01-09T20:49:09.414Z,4.45
2023-01-09T20:51:42.399Z,3.08
2023-01-09T20:54:10.739Z,2.97
2023-01-09T20:56:39.141Z,2.58
2023-01-09T20:59:13.022Z,2.60
2023-01-09T21:01:41.518Z,3.35
2023-01-09T21:04:11.317Z,2.90
2023-01-09T21:06:40.031Z,6.47
2023-01-09T21:09:08.431Z,6.03
2023-01-09T21:11:36.856Z,7.60
2023-01-09T21:14:05.250Z,3.92
2023-01-09T21:16:33.750Z,2.40
2023-01-09T21:19:02.273Z,3.40
2023-01-09T21:21:32.025Z,3.88
2023-01-09T21:24:01.561Z,2.40
2023-01-09T21:26:30.882Z,2.85
2023-01-09T21:29:01.254Z,3.22
2023-01-09T21:31:34.466Z,3.28
2023-01-09T21:34:05.519Z,7.72
2023-01-09T21:36:36.320Z,3.10
2023-01-09T21:39:07.909Z,3.55
2023-01-09T21:41:54.433Z,3.05
2023-01-09T21:44:40.038Z,3.13
2023-01-09T21:47:08.387Z,2.90
2023-01-09T21:49:40.950Z,5.63
2023-01-09T21:52:12.820Z,3.53
2023-01-09T21:54:42.030Z,3.10
2023-01-09T21:57:10.764Z,3.10
2023-01-09T21:59:39.114Z,5.35
2023-01-09T22:02:07.850Z,3.40
2023-01-09T22:04:36.322Z,3.10
2023-01-09T22:07:04.696Z,2.90
2023-01-09T22:09:34.449Z,3.30
2023-01-09T22:12:02.816Z,3.85
2023-01-09T22:14:31.284Z,4.10
2023-01-09T22:17:00.144Z,3.70
2023-01-09T22:19:28.500Z,4.13
2023-01-09T22:21:56.913Z,3.83
2023-01-09T22:24:25.308Z,4.07
2023-01-09T22:26:55.051Z,3.03
2023-01-09T22:29:23.427Z,3.42
2023-01-09T22:31:51.884Z,2.80
2023-01-09T22:34:20.326Z,3.05
2023-01-09T22:36:48.708Z,2.63
2023-01-09T22:39:18.857Z,2.75
2023-01-09T22:41:51.666Z,3.45
2023-01-09T22:44:21.761Z,3.63
2023-01-09T22:46:58.346Z,2.83
2023-01-09T22:49:30.224Z,2.75
2023-01-09T22:52:01.837Z,2.80
2023-01-09T22:54:30.217Z,3.35
2023-01-09T22:56:58.616Z,3.10
2023-01-09T22:59:29.003Z,3.10
2023-01-09T23:01:58.088Z,3.05
2023-01-09T23:04:26.940Z,3.13
2023-01-09T23:06:55.300Z,2.92
2023-01-09T23:09:23.726Z,2.90
2023-01-09T23:12:03.996Z,3.05
2023-01-09T23:14:36.551Z,4.10
2023-01-09T23:17:05.912Z,3.42
2023-01-09T23:19:36.205Z,3.03
2023-01-09T23:22:05.853Z,3.00
2023-01-09T23:24:34.913Z,3.08
2023-01-09T23:27:04.356Z,2.55
2023-01-09T23:29:38.712Z,2.45
2023-01-09T23:32:08.283Z,2.72
2023-01-09T23:34:36.943Z,2.80
2023-01-09T23:37:08.982Z,2.80
2023-01-09T23:39:37.576Z,2.47
2023-01-09T23:42:23.198Z,3.03
2023-01-09T23:44:52.954Z,3.20
2023-01-09T23:47:21.269Z,3.80
2023-01-09T23:49:49.651Z,3.15
2023-01-09T23:52:18.099Z,3.95
2023-01-09T23:54:46.429Z,4.07
2023-01-09T23:57:14.892Z,3.72
2023-01-09T23:59:43.472Z,3.40
